Time;durP1;ratioP1;P1;durP2;ratioP2;P2;SDS_P1;SDS_P2;PMS_P1;PMS_P2;Temp;Humidity;BMP_temperature;BMP_pressure;BME280_temperature;BME280_humidity;BME280_pressure;Samples;Min_cycle;Max_cycle;Signal;HPM_P1;HPM_P2
2022/10/10 00:01:08;;;;;;;;;;;;;;;;;;4914555;29;20461;-86
2022/10/10 00:03:33;;;;;;;;;;;;;;;;;;4904252;29;19919;-87
2022/10/10 00:05:59;;;;;;;;;;;;;;;;;;4930836;29;20502;-86
2022/10/10 00:08:24;;;;;;;;;;;;;;;;;;4928362;29;19922;-88
2022/10/10 00:10:49;;;;;;;;;;;;;;;;;;4927873;29;20035;-88
2022/10/10 00:13:15;;;;;;;;;;;;;;;;;;4905448;29;20417;-88
2022/10/10 00:15:40;;;;;;;;;;;;;;;;;;4885396;29;20005;-87
2022/10/10 00:18:06;;;;;;;;;;;;;;;;;;4917761;29;19919;-87
2022/10/10 00:20:31;;;;;;;;;;;;;;;;;;4926955;29;20006;-87
2022/10/10 00:22:56;;;;;;;;;;;;;;;;;;4909812;29;20454;-86
2022/10/10 00:25:22;;;;;;;;;;;;;;;;;;4920327;29;19919;-88
2022/10/10 00:27:47;;;;;;;;;;;;;;;;;;4931448;29;19919;-87
2022/10/10 00:30:12;;;;;;;;;;;;;;;;;;4904492;29;19934;-87
2022/10/10 00:32:38;;;;;;;;;;;;;;;;;;4908691;29;20375;-88
2022/10/10 00:35:03;;;;;;;;;;;;;;;;;;4927822;29;19914;-89
2022/10/10 00:37:28;;;;;;;;;;;;;;;;;;4919451;29;19922;-89
2022/10/10 00:39:54;;;;;;;;;;;;;;;;;;4931509;29;20418;-88
2022/10/10 00:42:19;;;;;;;;;;;;;;;;;;4905113;29;20457;-87
2022/10/10 00:44:44;;;;;;;;;;;;;;;;;;4908065;29;20278;-87
2022/10/10 00:47:10;;;;;;;;;;;;;;;;;;4912728;29;19915;-88
2022/10/10 00:49:35;;;;;;;;;;;;;;;;;;4905601;29;19919;-85
2022/10/10 00:52:01;;;;;;;;;;;;;;;;;;4934164;29;19926;-88
2022/10/10 00:54:26;;;;;;;;;;;;;;;;;;4920012;29;20391;-85
2022/10/10 00:56:52;;;;;;;;;;;;;;;;;;4929846;29;20150;-88
2022/10/10 00:59:17;;;;;;;;;;;;;;;;;;4924320;29;19931;-85
2022/10/10 01:01:42;;;;;;;;;;;;;;;;;;4917812;29;19918;-87
2022/10/10 01:04:08;;;;;;;;;;;;;;;;;;4906628;29;19918;-87
2022/10/10 01:06:33;;;;;;;;;;;;;;;;;;4929946;29;20391;-87
2022/10/10 01:09:00;;;;;;;;;;;;;;;;;;4913901;29;19915;-87
2022/10/10 01:11:25;;;;;;;;;;;;;;;;;;4923095;29;19922;-86
2022/10/10 01:13:50;;;;;;;;;;;;;;;;;;4934144;29;19927;-88
2022/10/10 01:16:16;;;;;;;;;;;;;;;;;;4926474;29;19915;-88
2022/10/10 01:18:41;;;;;;;;;;;;;;;;;;4928856;29;19916;-88
2022/10/10 01:21:08;;;;;;;;;;;;;;;;;;4931643;29;20044;-88
2022/10/10 01:23:34;;;;;;;;;;;;;;;;;;4907946;29;19915;-87
2022/10/10 01:26:00;;;;;;;;;;;;;;;;;;4927765;29;19981;-83
2022/10/10 01:28:25;;;;;;;;;;;;;;;;;;4919051;29;20474;-87
2022/10/10 01:30:50;;;;;;;;;;;;;;;;;;4910463;29;19919;-86
2022/10/10 01:33:16;;;;;;;;;;;;;;;;;;4932212;29;20009;-88
2022/10/10 01:35:41;;;;;;;;;;;;;;;;;;4904952;29;19915;-88
2022/10/10 01:38:06;;;;;;;;;;;;;;;;;;4933044;29;19915;-88
2022/10/10 01:40:32;;;;;;;;;;;;;;;;;;4926629;29;19958;-88
2022/10/10 01:42:57;;;;;;;;;;;;;;;;;;4908610;29;19927;-89
2022/10/10 01:45:22;;;;;;;;;;;;;;;;;;4916002;29;19918;-88
2022/10/10 01:47:48;;;;;;;;;;;;;;;;;;4904756;29;19919;-88
2022/10/10 01:50:13;;;;;;;;;;;;;;;;;;4899067;29;20433;-86
2022/10/10 01:52:39;;;;;;;;;;;;;;;;;;4909603;29;19923;-89
2022/10/10 01:55:04;;;;;;;;;;;;;;;;;;4935873;29;19914;-88
2022/10/10 01:57:29;;;;;;;;;;;;;;;;;;4936982;29;19915;-89
2022/10/10 01:59:55;;;;;;;;;;;;;;;;;;4918301;29;20370;-89
2022/10/10 02:02:20;;;;;;;;;;;;;;;;;;4907776;29;20375;-88
2022/10/10 02:04:45;;;;;;;;;;;;;;;;;;4910580;29;19986;-89
2022/10/10 02:07:11;;;;;;;;;;;;;;;;;;4886299;29;19922;-88
2022/10/10 02:09:37;;;;;;;;;;;;;;;;;;4934258;29;19921;-88
2022/10/10 02:12:02;;;;;;;;;;;;;;;;;;4905786;29;19930;-88
2022/10/10 02:14:28;;;;;;;;;;;;;;;;;;4929288;29;19919;-88
2022/10/10 02:16:53;;;;;;;;;;;;;;;;;;4929003;29;20334;-89
2022/10/10 02:19:18;;;;;;;;;;;;;;;;;;4923220;29;19915;-87
2022/10/10 02:21:44;;;;;;;;;;;;;;;;;;4917342;29;19966;-89
2022/10/10 02:24:09;;;;;;;;;;;;;;;;;;4907010;29;19919;-89
2022/10/10 02:26:35;;;;;;;;;;;;;;;;;;4929786;29;19947;-88
2022/10/10 02:29:00;;;;;;;;;;;;;;;;;;4933774;29;19981;-88
2022/10/10 02:31:25;;;;;;;;;;;;;;;;;;4933363;29;19915;-87
2022/10/10 02:33:51;;;;;;;;;;;;;;;;;;4942077;29;20040;-90
2022/10/10 02:36:16;;;;;;;;;;;;;;;;;;4908581;29;19984;-89
2022/10/10 02:38:41;;;;;;;;;;;;;;;;;;4942340;29;20009;-90
2022/10/10 02:41:07;;;;;;;;;;;;;;;;;;4898752;29;19938;-88
2022/10/10 02:43:33;;;;;;;;;;;;;;;;;;4927163;29;19918;-87
2022/10/10 02:45:58;;;;;;;;;;;;;;;;;;4929553;29;19942;-89
2022/10/10 02:48:23;;;;;;;;;;;;;;;;;;4937034;29;19970;-85
2022/10/10 02:50:49;;;;;;;;;;;;;;;;;;4934031;29;19915;-87
2022/10/10 02:53:14;;;;;;;;;;;;;;;;;;4925855;29;19919;-90
2022/10/10 02:55:40;;;;;;;;;;;;;;;;;;4901811;29;19921;-88
2022/10/10 02:58:05;;;;;;;;;;;;;;;;;;4933941;29;19911;-86
2022/10/10 03:00:30;;;;;;;;;;;;;;;;;;4926982;29;19950;-87
2022/10/10 03:02:56;;;;;;;;;;;;;;;;;;4926015;29;19926;-88
2022/10/10 03:05:21;;;;;;;;;;;;;;;;;;4914815;29;19922;-86
2022/10/10 03:07:47;;;;;;;;;;;;;;;;;;4903709;29;20350;-89
2022/10/10 03:10:12;;;;;;;;;;;;;;;;;;4918301;29;19974;-88
2022/10/10 03:12:37;;;;;;;;;;;;;;;;;;4910311;29;19919;-88
2022/10/10 03:15:02;;;;;;;;;;;;;;;;;;4929001;29;19919;-88
2022/10/10 03:17:28;;;;;;;;;;;;;;;;;;4920325;29;19926;-88
2022/10/10 03:19:53;;;;;;;;;;;;;;;;;;4915372;29;19926;-88
2022/10/10 03:22:19;;;;;;;;;;;;;;;;;;4905902;29;19919;-89
2022/10/10 03:24:44;;;;;;;;;;;;;;;;;;4908875;29;19983;-89
2022/10/10 03:27:09;;;;;;;;;;;;;;;;;;4912686;29;20294;-88
2022/10/10 03:29:35;;;;;;;;;;;;;;;;;;4919522;29;19915;-88
2022/10/10 03:32:00;;;;;;;;;;;;;;;;;;4931501;29;19919;-89
2022/10/10 03:34:26;;;;;;;;;;;;;;;;;;4907806;29;19966;-89
2022/10/10 03:36:51;;;;;;;;;;;;;;;;;;4902139;29;20274;-86
2022/10/10 03:39:16;;;;;;;;;;;;;;;;;;4938838;29;20013;-89
2022/10/10 03:41:42;;;;;;;;;;;;;;;;;;4920142;29;19922;-87
2022/10/10 03:44:07;;;;;;;;;;;;;;;;;;4913998;29;19915;-87
2022/10/10 03:46:32;;;;;;;;;;;;;;;;;;4924746;29;19966;-89
2022/10/10 03:48:58;;;;;;;;;;;;;;;;;;4907634;29;20299;-88
2022/10/10 03:51:23;;;;;;;;;;;;;;;;;;4931937;29;19962;-87
2022/10/10 03:53:48;;;;;;;;;;;;;;;;;;4918339;29;19983;-86
2022/10/10 03:56:14;;;;;;;;;;;;;;;;;;4921858;29;19997;-88
2022/10/10 03:58:39;;;;;;;;;;;;;;;;;;4926441;29;19916;-87
2022/10/10 04:01:04;;;;;;;;;;;;;;;;;;4928282;29;19921;-84
2022/10/10 04:03:30;;;;;;;;;;;;;;;;;;4919023;29;19970;-88
2022/10/10 04:05:55;;;;;;;;;;;;;;;;;;4914871;29;20438;-88
2022/10/10 04:08:20;;;;;;;;;;;;;;;;;;4923013;29;19922;-88
2022/10/10 04:10:46;;;;;;;;;;;;;;;;;;4908015;29;19971;-88
2022/10/10 04:13:11;;;;;;;;;;;;;;;;;;4928607;29;20065;-87
2022/10/10 04:15:37;;;;;;;;;;;;;;;;;;4919122;29;20387;-86
2022/10/10 04:18:02;;;;;;;;;;;;;;;;;;4930797;29;20017;-88
2022/10/10 04:20:28;;;;;;;;;;;;;;;;;;4923165;29;19922;-87
2022/10/10 04:22:53;;;;;;;;;;;;;;;;;;4910359;29;19922;-86
2022/10/10 04:25:18;;;;;;;;;;;;;;;;;;4917087;29;19915;-87
2022/10/10 04:27:44;;;;;;;;;;;;;;;;;;4904501;29;19915;-90
2022/10/10 04:30:09;;;;;;;;;;;;;;;;;;4924829;29;20009;-89
2022/10/10 04:32:35;;;;;;;;;;;;;;;;;;4913014;29;19923;-88
2022/10/10 04:35:00;;;;;;;;;;;;;;;;;;4914388;29;19968;-86
2022/10/10 04:37:25;;;;;;;;;;;;;;;;;;4906476;29;20391;-88
2022/10/10 04:39:51;;;;;;;;;;;;;;;;;;4918271;29;19919;-88
2022/10/10 04:42:16;;;;;;;;;;;;;;;;;;4893100;29;20037;-87
2022/10/10 04:44:41;;;;;;;;;;;;;;;;;;4911579;29;19966;-89
2022/10/10 04:47:07;;;;;;;;;;;;;;;;;;4932066;29;19925;-89
2022/10/10 04:49:32;;;;;;;;;;;;;;;;;;4905379;29;19919;-89
2022/10/10 04:51:58;;;;;;;;;;;;;;;;;;4902679;29;19955;-90
2022/10/10 04:54:23;;;;;;;;;;;;;;;;;;4920067;29;20410;-89
2022/10/10 04:56:48;;;;;;;;;;;;;;;;;;4929175;29;19915;-90
2022/10/10 04:59:14;;;;;;;;;;;;;;;;;;4924660;29;19915;-88
2022/10/10 05:01:39;;;;;;;;;;;;;;;;;;4917858;29;20413;-90
2022/10/10 05:04:05;;;;;;;;;;;;;;;;;;4923519;29;19919;-90
2022/10/10 05:06:30;;;;;;;;;;;;;;;;;;4913662;29;19915;-90
2022/10/10 05:08:55;;;;;;;;;;;;;;;;;;4886757;29;19919;-90
2022/10/10 05:11:21;;;;;;;;;;;;;;;;;;4934679;29;19919;-90
2022/10/10 05:13:48;;;;;;;;;;;;;;;;;;4922530;29;19919;-90
2022/10/10 05:16:14;;;;;;;;;;;;;;;;;;4932372;29;20444;-89
2022/10/10 05:18:39;;;;;;;;;;;;;;;;;;4895369;29;19954;-87
2022/10/10 05:21:06;;;;;;;;;;;;;;;;;;4925881;29;19915;-88
2022/10/10 05:23:32;;;;;;;;;;;;;;;;;;4901506;29;19958;-88
2022/10/10 05:25:57;;;;;;;;;;;;;;;;;;4905353;29;20254;-87
2022/10/10 05:28:22;;;;;;;;;;;;;;;;;;4914101;29;19925;-90
2022/10/10 05:30:48;;;;;;;;;;;;;;;;;;4912470;29;19915;-89
2022/10/10 05:33:13;;;;;;;;;;;;;;;;;;4907585;29;19919;-89
2022/10/10 05:35:39;;;;;;;;;;;;;;;;;;4936075;29;19914;-86
2022/10/10 05:38:04;;;;;;;;;;;;;;;;;;4924421;29;19915;-87
2022/10/10 05:40:30;;;;;;;;;;;;;;;;;;4931285;29;19915;-87
2022/10/10 05:42:55;;;;;;;;;;;;;;;;;;4936939;29;20264;-84
2022/10/10 05:45:21;;;;;;;;;;;;;;;;;;4931979;29;20275;-88
2022/10/10 05:47:46;;;;;;;;;;;;;;;;;;4938280;29;19929;-89
2022/10/10 05:50:11;;;;;;;;;;;;;;;;;;4913199;29;19915;-86
2022/10/10 05:52:37;;;;;;;;;;;;;;;;;;4902555;29;19930;-87
2022/10/10 05:55:02;;;;;;;;;;;;;;;;;;4928311;29;19919;-87
2022/10/10 05:57:27;;;;;;;;;;;;;;;;;;4927518;29;19999;-88
2022/10/10 05:59:53;;;;;;;;;;;;;;;;;;4927571;29;19923;-88
2022/10/10 06:02:19;;;;;;;;;;;;;;;;;;4920648;29;20005;-86
2022/10/10 06:04:44;;;;;;;;;;;;;;;;;;4935563;29;19923;-87
2022/10/10 06:07:09;;;;;;;;;;;;;;;;;;4930086;29;19926;-89
2022/10/10 06:09:35;;;;;;;;;;;;;;;;;;4939409;29;19915;-89
2022/10/10 06:12:00;;;;;;;;;;;;;;;;;;4922695;29;19945;-89
2022/10/10 06:14:25;;;;;;;;;;;;;;;;;;4913123;29;19915;-88
2022/10/10 06:16:51;;;;;;;;;;;;;;;;;;4930644;29;19943;-88
2022/10/10 06:19:16;;;;;;;;;;;;;;;;;;4924700;29;19989;-79
2022/10/10 06:21:42;;;;;;;;;;;;;;;;;;4916833;29;19922;-80
2022/10/10 06:24:09;;;;;;;;;;;;;;;;;;4905060;29;20398;-78
2022/10/10 06:26:34;;;;;;;;;;;;;;;;;;4919672;29;19915;-78
2022/10/10 06:29:00;;;;;;;;;;;;;;;;;;4909841;29;20295;-90
2022/10/10 06:31:25;;;;;;;;;;;;;;;;;;4916364;29;19922;-89
2022/10/10 06:33:52;;;;;;;;;;;;;;;;;;4918719;29;19923;-90
2022/10/10 06:36:17;;;;;;;;;;;;;;;;;;4923781;29;19922;-89
2022/10/10 06:38:42;;;;;;;;;;;;;;;;;;4926934;29;19919;-88
2022/10/10 06:41:08;;;;;;;;;;;;;;;;;;4930183;29;19966;-89
2022/10/10 06:43:33;;;;;;;;;;;;;;;;;;4919053;29;20074;-90
2022/10/10 06:45:58;;;;;;;;;;;;;;;;;;4920780;29;19922;-89
2022/10/10 06:48:24;;;;;;;;;;;;;;;;;;4912821;29;19923;-85
2022/10/10 06:50:49;;;;;;;;;;;;;;;;;;4921001;29;19938;-87
2022/10/10 06:53:15;;;;;;;;;;;;;;;;;;4912859;29;20401;-80
2022/10/10 06:55:40;;;;;;;;;;;;;;;;;;4914632;29;20055;-79
2022/10/10 06:58:06;;;;;;;;;;;;;;;;;;4914268;29;19915;-79
2022/10/10 07:00:31;;;;;;;;;;;;;;;;;;4892285;29;19981;-79
2022/10/10 07:02:57;;;;;;;;;;;;;;;;;;4906484;29;20006;-79
2022/10/10 07:05:22;;;;;;;;;;;;;;;;;;4914534;29;19978;-80
2022/10/10 07:07:48;;;;;;;;;;;;;;;;;;4920784;29;20410;-82
2022/10/10 07:10:13;;;;;;;;;;;;;;;;;;4930210;29;20306;-79
2022/10/10 07:12:39;;;;;;;;;;;;;;;;;;4907895;29;19922;-79
2022/10/10 07:15:04;;;;;;;;;;;;;;;;;;4890821;29;19963;-79
2022/10/10 07:17:30;;;;;;;;;;;;;;;;;;4915307;29;19918;-80
2022/10/10 07:19:55;;;;;;;;;;;;;;;;;;4902832;29;19915;-81
2022/10/10 07:22:20;;;;;;;;;;;;;;;;;;4911798;29;19921;-78
2022/10/10 07:24:46;;;;;;;;;;;;;;;;;;4909761;29;19915;-77
2022/10/10 07:27:11;;;;;;;;;;;;;;;;;;4922229;29;20384;-79
2022/10/10 07:29:37;;;;;;;;;;;;;;;;;;4914922;29;19921;-77
2022/10/10 07:32:02;;;;;;;;;;;;;;;;;;4907006;29;20398;-81
2022/10/10 07:34:28;;;;;;;;;;;;;;;;;;4901226;29;19915;-93
2022/10/10 07:36:53;;;;;;;;;;;;;;;;;;4900946;29;19951;-94
2022/10/10 07:39:19;;;;;;;;;;;;;;;;;;4896557;29;20270;-94
2022/10/10 07:41:44;;;;;;;;;;;;;;;;;;4906504;29;20422;-94
2022/10/10 07:44:09;;;;;;;;;;;;;;;;;;4918895;29;19983;-95
2022/10/10 07:46:35;;;;;;;;;;;;;;;;;;4914452;29;19915;-92
2022/10/10 07:49:00;;;;;;;;;;;;;;;;;;4929221;29;20435;-94
2022/10/10 07:51:26;;;;;;;;;;;;;;;;;;4905488;29;19991;-93
2022/10/10 07:53:51;;;;;;;;;;;;;;;;;;4932460;28;19962;-94
2022/10/10 07:56:16;;;;;;;;;;;;;;;;;;4936520;29;19988;-95
2022/10/10 07:58:42;;;;;;;;;;;;;;;;;;4909453;29;19922;-92
2022/10/10 08:01:07;;;;;;;;;;;;;;;;;;4884805;29;20277;-93
2022/10/10 08:03:33;;;;;;;;;;;;;;;;;;4886666;29;19954;-93
2022/10/10 08:05:58;;;;;;;;;;;;;;;;;;4913575;29;19922;-92
2022/10/10 08:08:24;;;;;;;;;;;;;;;;;;4884891;29;19971;-93
2022/10/10 08:10:50;;;;;;;;;;;;;;;;;;4929477;29;19979;-90
2022/10/10 08:13:15;;;;;;;;;;;;;;;;;;5351300;23;19914;-91
2022/10/10 08:15:41;;;;;;;;;;;;;;;;;;4977520;28;19918;-92
2022/10/10 08:18:06;;;;;;;;;;;;;;;;;;4924269;29;20314;-92
2022/10/10 08:20:32;;;;;;;;;;;;;;;;;;4913082;29;19922;-93
2022/10/10 08:22:57;;;;;;;;;;;;;;;;;;4918045;29;19949;-92
2022/10/10 08:25:23;;;;;;;;;;;;;;;;;;4906895;29;20007;-92
2022/10/10 08:27:48;;;;;;;;;;;;;;;;;;4902365;29;19953;-90
2022/10/10 08:30:14;;;;;;;;;;;;;;;;;;4901601;29;19915;-89
2022/10/10 08:32:39;;;;;;;;;;;;;;;;;;4928725;29;19919;-92
2022/10/10 08:35:07;;;;;;;;;;;;;;;;;;4923576;29;19981;-93
2022/10/10 08:37:33;;;;;;;;;;;;;;;;;;4912369;29;19998;-92
2022/10/10 08:39:58;;;;;;;;;;;;;;;;;;4909262;29;19919;-92
2022/10/10 08:42:24;;;;;;;;;;;;;;;;;;4920110;29;19978;-92
2022/10/10 08:44:50;;;;;;;;;;;;;;;;;;4911320;29;19911;-94
2022/10/10 08:47:18;;;;;;;;;;;;;;;;;;4918060;29;20455;-93
2022/10/10 08:49:44;;;;;;;;;;;;;;;;;;4907735;29;19919;-94
2022/10/10 08:52:10;;;;;;;;;;;;;;;;;;5058881;23;19962;-92
2022/10/10 08:54:35;;;;;;;;;;;;;;;;;;5141372;23;20960;-87
2022/10/10 08:57:01;;;;;;;;;;;;;;;;;;5076293;23;19926;-89
2022/10/10 08:59:26;;;;;;;;;;;;;;;;;;4922978;29;20358;-94
2022/10/10 09:01:57;;;;;;;;;;;;;;;;;;4933160;29;19914;-92
2022/10/10 09:04:23;;;;;;;;;;;;;;;;;;4911789;29;19915;-92
2022/10/10 09:06:48;;;;;;;;;;;;;;;;;;4918875;29;20402;-92
2022/10/10 09:09:14;;;;;;;;;;;;;;;;;;4880781;29;19971;-92
2022/10/10 09:11:43;;;;;;;;;;;;;;;;;;4898115;29;19942;-90
2022/10/10 09:14:11;;;;;;;;;;;;;;;;;;4893251;29;19927;-87
2022/10/10 09:16:37;;;;;;;;;;;;;;;;;;4930354;29;19915;-88
2022/10/10 09:19:02;;;;;;;;;;;;;;;;;;4911793;29;19997;-88
2022/10/10 09:21:27;;;;;;;;;;;;;;;;;;4895838;29;20374;-87
2022/10/10 09:23:53;;;;;;;;;;;;;;;;;;4926205;29;19926;-88
2022/10/10 09:26:18;;;;;;;;;;;;;;;;;;4936889;29;19923;-88
2022/10/10 09:28:43;;;;;;;;;;;;;;;;;;4932241;29;19915;-89
2022/10/10 09:31:09;;;;;;;;;;;;;;;;;;4929425;29;19915;-87
2022/10/10 09:33:34;;;;;;;;;;;;;;;;;;4905520;29;20395;-88
2022/10/10 09:36:00;;;;;;;;;;;;;;;;;;4937157;29;19966;-86
2022/10/10 09:38:25;;;;;;;;;;;;;;;;;;4913287;29;19915;-90
2022/10/10 09:40:50;;;;;;;;;;;;;;;;;;4914124;29;20393;-88
2022/10/10 09:43:16;;;;;;;;;;;;;;;;;;4919286;29;19915;-86
2022/10/10 09:45:41;;;;;;;;;;;;;;;;;;4907181;29;20004;-87
2022/10/10 09:48:06;;;;;;;;;;;;;;;;;;4936138;29;20021;-88
2022/10/10 09:50:32;;;;;;;;;;;;;;;;;;4929505;29;19921;-88
2022/10/10 09:52:57;;;;;;;;;;;;;;;;;;4912597;29;19934;-88
2022/10/10 09:55:23;;;;;;;;;;;;;;;;;;4926476;29;19947;-86
2022/10/10 09:57:48;;;;;;;;;;;;;;;;;;4945249;29;19923;-85
2022/10/10 10:00:14;;;;;;;;;;;;;;;;;;4917465;29;20375;-88
2022/10/10 10:02:39;;;;;;;;;;;;;;;;;;4930835;29;19923;-89
2022/10/10 10:05:05;;;;;;;;;;;;;;;;;;4931775;29;19914;-88
2022/10/10 10:07:30;;;;;;;;;;;;;;;;;;4906414;29;20473;-87
2022/10/10 10:09:56;;;;;;;;;;;;;;;;;;4890883;29;19915;-88
2022/10/10 10:12:21;;;;;;;;;;;;;;;;;;4938291;29;20017;-89
2022/10/10 10:14:49;;;;;;;;;;;;;;;;;;4911266;29;19926;-87
2022/10/10 10:17:15;;;;;;;;;;;;;;;;;;4932498;29;19915;-85
2022/10/10 10:19:40;;;;;;;;;;;;;;;;;;4913529;29;20396;-89
2022/10/10 10:22:06;;;;;;;;;;;;;;;;;;4924472;29;19986;-89
2022/10/10 10:24:35;;;;;;;;;;;;;;;;;;4894301;29;19915;-86
2022/10/10 10:27:00;;;;;;;;;;;;;;;;;;4937851;29;19921;-82
2022/10/10 10:29:25;;;;;;;;;;;;;;;;;;4924098;29;19915;-84
2022/10/10 10:31:51;;;;;;;;;;;;;;;;;;4951247;29;19940;-87
2022/10/10 10:34:16;;;;;;;;;;;;;;;;;;4927246;29;19922;-87
2022/10/10 10:36:42;;;;;;;;;;;;;;;;;;4915147;29;19915;-89
2022/10/10 10:39:07;;;;;;;;;;;;;;;;;;4938276;29;20362;-88
2022/10/10 10:41:32;;;;;;;;;;;;;;;;;;4909932;29;19915;-86
2022/10/10 10:43:58;;;;;;;;;;;;;;;;;;4910778;29;19950;-89
2022/10/10 10:46:23;;;;;;;;;;;;;;;;;;4910108;29;19918;-89
2022/10/10 10:48:48;;;;;;;;;;;;;;;;;;4927489;29;20382;-88
2022/10/10 10:51:14;;;;;;;;;;;;;;;;;;4928044;29;19922;-86
2022/10/10 10:53:39;;;;;;;;;;;;;;;;;;4933667;29;19926;-85
2022/10/10 10:56:05;;;;;;;;;;;;;;;;;;4931161;29;20381;-86
2022/10/10 10:58:30;;;;;;;;;;;;;;;;;;4935802;29;20039;-87
2022/10/10 11:00:55;;;;;;;;;;;;;;;;;;4928860;29;20320;-87
2022/10/10 11:03:21;;;;;;;;;;;;;;;;;;4921729;29;19943;-85
2022/10/10 11:05:46;;;;;;;;;;;;;;;;;;4900009;29;19914;-86
2022/10/10 11:08:12;;;;;;;;;;;;;;;;;;4923027;29;19962;-87
2022/10/10 11:10:37;;;;;;;;;;;;;;;;;;4910364;29;19921;-87
2022/10/10 11:13:03;;;;;;;;;;;;;;;;;;4912419;29;19957;-87
2022/10/10 11:15:28;;;;;;;;;;;;;;;;;;4918872;29;19919;-86
2022/10/10 11:17:53;;;;;;;;;;;;;;;;;;4920369;29;19953;-87
2022/10/10 11:20:19;;;;;;;;;;;;;;;;;;4912524;29;20272;-86
2022/10/10 11:22:44;;;;;;;;;;;;;;;;;;4927055;29;19940;-86
2022/10/10 11:25:10;;;;;;;;;;;;;;;;;;4906734;29;19915;-85
2022/10/10 11:27:35;;;;;;;;;;;;;;;;;;4896153;29;20013;-87
2022/10/10 11:30:01;;;;;;;;;;;;;;;;;;4936457;29;19969;-88
2022/10/10 11:32:26;;;;;;;;;;;;;;;;;;4929002;29;20287;-87
2022/10/10 11:34:51;;;;;;;;;;;;;;;;;;4901228;29;19915;-89
2022/10/10 11:37:17;;;;;;;;;;;;;;;;;;4931626;29;20018;-87
2022/10/10 11:39:42;;;;;;;;;;;;;;;;;;4903073;29;19984;-86
2022/10/10 11:42:08;;;;;;;;;;;;;;;;;;4925497;29;20386;-88
2022/10/10 11:44:33;;;;;;;;;;;;;;;;;;4913078;29;20398;-91
2022/10/10 11:46:59;;;;;;;;;;;;;;;;;;4891415;29;19915;-87
2022/10/10 11:49:24;;;;;;;;;;;;;;;;;;4913190;29;20371;-83
2022/10/10 11:51:50;;;;;;;;;;;;;;;;;;4929934;29;19919;-83
2022/10/10 11:54:15;;;;;;;;;;;;;;;;;;4926517;29;19918;-84
2022/10/10 11:56:40;;;;;;;;;;;;;;;;;;4894127;29;19942;-86
2022/10/10 11:59:06;;;;;;;;;;;;;;;;;;4911668;29;19934;-82
2022/10/10 12:01:31;;;;;;;;;;;;;;;;;;4947798;29;19919;-80
2022/10/10 12:03:57;;;;;;;;;;;;;;;;;;4925051;29;19918;-81
2022/10/10 12:06:22;;;;;;;;;;;;;;;;;;4927818;29;20264;-80
2022/10/10 12:08:48;;;;;;;;;;;;;;;;;;4924697;29;19915;-80
2022/10/10 12:11:13;;;;;;;;;;;;;;;;;;4904441;29;20391;-82
2022/10/10 12:13:38;;;;;;;;;;;;;;;;;;4930684;29;20003;-81
2022/10/10 12:16:04;;;;;;;;;;;;;;;;;;4872160;29;19915;-82
2022/10/10 12:18:29;;;;;;;;;;;;;;;;;;4911981;29;19922;-81
2022/10/10 12:20:54;;;;;;;;;;;;;;;;;;4928324;29;19929;-82
2022/10/10 12:23:20;;;;;;;;;;;;;;;;;;4920040;29;19915;-81
2022/10/10 12:25:46;;;;;;;;;;;;;;;;;;4883335;29;19915;-81
2022/10/10 12:28:11;;;;;;;;;;;;;;;;;;4903978;29;19926;-82
2022/10/10 12:30:37;;;;;;;;;;;;;;;;;;4908789;29;19964;-81
2022/10/10 12:33:02;;;;;;;;;;;;;;;;;;4926867;29;19919;-81
2022/10/10 12:35:28;;;;;;;;;;;;;;;;;;4919234;29;19971;-81
2022/10/10 12:37:53;;;;;;;;;;;;;;;;;;4914429;29;19926;-91
2022/10/10 12:40:19;;;;;;;;;;;;;;;;;;4877946;29;19923;-91
2022/10/10 12:42:44;;;;;;;;;;;;;;;;;;4896040;29;19914;-92
2022/10/10 12:45:09;;;;;;;;;;;;;;;;;;4889992;29;19916;-92
2022/10/10 12:47:35;;;;;;;;;;;;;;;;;;4889009;29;19915;-92
2022/10/10 12:50:00;;;;;;;;;;;;;;;;;;4875093;29;19919;-93
2022/10/10 12:52:26;;;;;;;;;;;;;;;;;;4877482;29;20002;-92
2022/10/10 12:54:51;;;;;;;;;;;;;;;;;;4914545;29;19953;-91
2022/10/10 12:57:17;;;;;;;;;;;;;;;;;;4890118;29;19970;-93
2022/10/10 12:59:43;;;;;;;;;;;;;;;;;;4889004;29;20269;-91
2022/10/10 13:02:08;;;;;;;;;;;;;;;;;;4875784;29;19926;-91
2022/10/10 13:04:35;;;;;;;;;;;;;;;;;;4911614;29;21940;-89
2022/10/10 13:07:01;;;;;;;;;;;;;;;;;;4912266;29;19915;-92
2022/10/10 13:09:27;;;;;;;;;;;;;;;;;;4888983;29;20274;-91
2022/10/10 13:11:52;;;;;;;;;;;;;;;;;;4908310;29;20017;-91
2022/10/10 13:14:18;;;;;;;;;;;;;;;;;;4894733;29;20354;-91
2022/10/10 13:16:43;;;;;;;;;;;;;;;;;;4891814;29;19965;-92
2022/10/10 13:19:09;;;;;;;;;;;;;;;;;;4890926;29;19919;-91
2022/10/10 13:21:34;;;;;;;;;;;;;;;;;;4889070;29;20291;-92
2022/10/10 13:24:00;;;;;;;;;;;;;;;;;;4875130;29;19962;-90
2022/10/10 13:26:28;;;;;;;;;;;;;;;;;;4899493;29;20053;-91
2022/10/10 13:28:55;;;;;;;;;;;;;;;;;;4921154;29;19954;-91
2022/10/10 13:31:21;;;;;;;;;;;;;;;;;;4895862;29;19926;-91
2022/10/10 13:33:46;;;;;;;;;;;;;;;;;;4893652;29;19919;-89
2022/10/10 13:36:12;;;;;;;;;;;;;;;;;;4899532;29;19916;-91
2022/10/10 13:38:37;;;;;;;;;;;;;;;;;;4899584;29;20089;-90
2022/10/10 13:41:03;;;;;;;;;;;;;;;;;;4924580;29;20240;-87
2022/10/10 13:43:28;;;;;;;;;;;;;;;;;;4910403;29;19979;-87
2022/10/10 13:45:53;;;;;;;;;;;;;;;;;;4912676;29;19919;-86
2022/10/10 13:48:19;;;;;;;;;;;;;;;;;;4932843;29;19919;-87
2022/10/10 13:50:44;;;;;;;;;;;;;;;;;;4936291;29;20389;-86
2022/10/10 13:53:09;;;;;;;;;;;;;;;;;;4946346;29;19957;-88
2022/10/10 13:55:35;;;;;;;;;;;;;;;;;;4925069;29;20382;-88
2022/10/10 13:58:00;;;;;;;;;;;;;;;;;;4939527;29;19925;-88
2022/10/10 14:00:29;;;;;;;;;;;;;;;;;;4902101;29;20021;-90
2022/10/10 14:02:54;;;;;;;;;;;;;;;;;;4921712;29;19922;-86
2022/10/10 14:05:20;;;;;;;;;;;;;;;;;;4945798;29;20300;-88
2022/10/10 14:07:45;;;;;;;;;;;;;;;;;;4943265;29;20230;-88
2022/10/10 14:10:11;;;;;;;;;;;;;;;;;;4913742;29;20005;-88
2022/10/10 14:12:36;;;;;;;;;;;;;;;;;;4941801;29;19999;-89
2022/10/10 14:15:01;;;;;;;;;;;;;;;;;;4913769;29;19919;-89
2022/10/10 14:17:27;;;;;;;;;;;;;;;;;;4921459;29;20290;-89
2022/10/10 14:19:52;;;;;;;;;;;;;;;;;;4903074;29;20291;-81
2022/10/10 14:22:18;;;;;;;;;;;;;;;;;;4921556;29;20329;-80
2022/10/10 14:24:43;;;;;;;;;;;;;;;;;;4932599;29;19990;-81
2022/10/10 14:27:08;;;;;;;;;;;;;;;;;;4921804;29;19927;-81
2022/10/10 14:29:34;;;;;;;;;;;;;;;;;;4933407;29;19922;-78
2022/10/10 14:31:59;;;;;;;;;;;;;;;;;;4920479;29;19919;-79
2022/10/10 14:34:24;;;;;;;;;;;;;;;;;;4918629;29;19915;-78
2022/10/10 14:36:50;;;;;;;;;;;;;;;;;;4908331;29;20005;-81
2022/10/10 14:39:15;;;;;;;;;;;;;;;;;;4930433;29;19989;-79
2022/10/10 14:41:41;;;;;;;;;;;;;;;;;;4919854;29;19950;-79
2022/10/10 14:44:06;;;;;;;;;;;;;;;;;;4930530;29;19921;-79
2022/10/10 14:46:31;;;;;;;;;;;;;;;;;;4924892;29;19915;-78
2022/10/10 14:48:57;;;;;;;;;;;;;;;;;;4924212;29;20271;-78
2022/10/10 14:51:22;;;;;;;;;;;;;;;;;;4931611;29;19919;-79
2022/10/10 14:53:47;;;;;;;;;;;;;;;;;;4923770;29;19923;-79
2022/10/10 14:56:13;;;;;;;;;;;;;;;;;;4902253;29;20382;-81
2022/10/10 14:58:38;;;;;;;;;;;;;;;;;;4918244;29;20321;-79
2022/10/10 15:01:04;;;;;;;;;;;;;;;;;;4908899;29;19919;-80
2022/10/10 15:03:29;;;;;;;;;;;;;;;;;;4933824;29;19915;-79
2022/10/10 15:05:55;;;;;;;;;;;;;;;;;;4926577;29;19915;-79
2022/10/10 15:08:20;;;;;;;;;;;;;;;;;;4933414;29;20411;-79
2022/10/10 15:10:46;;;;;;;;;;;;;;;;;;4910459;29;19915;-86
2022/10/10 15:13:11;;;;;;;;;;;;;;;;;;4937175;29;19926;-80
2022/10/10 15:15:37;;;;;;;;;;;;;;;;;;4919732;29;20010;-79
2022/10/10 15:18:02;;;;;;;;;;;;;;;;;;4931366;29;20248;-78
2022/10/10 15:20:30;;;;;;;;;;;;;;;;;;4924163;29;19965;-79
2022/10/10 15:22:56;;;;;;;;;;;;;;;;;;4923895;29;19975;-80
2022/10/10 15:25:22;;;;;;;;;;;;;;;;;;4914234;29;19918;-79
2022/10/10 15:27:47;;;;;;;;;;;;;;;;;;4919663;29;19970;-80
2022/10/10 15:30:13;;;;;;;;;;;;;;;;;;4930027;29;19915;-79
2022/10/10 15:32:38;;;;;;;;;;;;;;;;;;4923644;29;20399;-79
2022/10/10 15:35:03;;;;;;;;;;;;;;;;;;4923298;29;20272;-80
2022/10/10 15:37:29;;;;;;;;;;;;;;;;;;4931786;29;19919;-81
2022/10/10 15:39:54;;;;;;;;;;;;;;;;;;4918094;29;19924;-80
2022/10/10 15:42:20;;;;;;;;;;;;;;;;;;4911483;29;19923;-81
2022/10/10 15:44:45;;;;;;;;;;;;;;;;;;4925686;29;19934;-79
2022/10/10 15:47:10;;;;;;;;;;;;;;;;;;4921871;29;19915;-80
2022/10/10 15:49:36;;;;;;;;;;;;;;;;;;4931770;29;20295;-81
2022/10/10 15:52:01;;;;;;;;;;;;;;;;;;4918682;29;19915;-80
2022/10/10 15:54:27;;;;;;;;;;;;;;;;;;4933264;29;20062;-82
2022/10/10 15:56:52;;;;;;;;;;;;;;;;;;4923940;29;19926;-82
2022/10/10 15:59:17;;;;;;;;;;;;;;;;;;4928656;29;20507;-79
2022/10/10 16:01:43;;;;;;;;;;;;;;;;;;4916497;29;19922;-85
2022/10/10 16:04:08;;;;;;;;;;;;;;;;;;4902398;29;19925;-85
2022/10/10 16:06:34;;;;;;;;;;;;;;;;;;4944652;29;20156;-83
2022/10/10 16:09:00;;;;;;;;;;;;;;;;;;4941835;29;20318;-83
2022/10/10 16:11:26;;;;;;;;;;;;;;;;;;4938903;29;19914;-85
2022/10/10 16:13:51;;;;;;;;;;;;;;;;;;4903238;29;19942;-88
2022/10/10 16:16:17;;;;;;;;;;;;;;;;;;4907063;29;19915;-90
2022/10/10 16:18:43;;;;;;;;;;;;;;;;;;4941593;29;19996;-88
2022/10/10 16:21:08;;;;;;;;;;;;;;;;;;4909471;29;20423;-86
2022/10/10 16:23:34;;;;;;;;;;;;;;;;;;4925482;29;19922;-87
2022/10/10 16:25:59;;;;;;;;;;;;;;;;;;4938461;29;19915;-89
2022/10/10 16:28:24;;;;;;;;;;;;;;;;;;4914613;29;19982;-88
2022/10/10 16:30:50;;;;;;;;;;;;;;;;;;4913560;29;19915;-88
2022/10/10 16:33:15;;;;;;;;;;;;;;;;;;4938455;29;20060;-89